sensor_id;sensor_type;location;lat;lon;timestamp;temperature;humidity
46752;DHT22;32497;48.936;9.270;2023-02-04T00:02:30;7.10;91.30
46752;DHT22;32497;48.936;9.270;2023-02-04T00:07:33;7.10;91.60
46752;DHT22;32497;48.936;9.270;2023-02-04T00:12:34;7.10;91.70
46752;DHT22;32497;48.936;9.270;2023-02-04T00:17:35;7.10;91.60
46752;DHT22;32497;48.936;9.270;2023-02-04T00:22:37;7.10;92.00
46752;DHT22;32497;48.936;9.270;2023-02-04T00:27:38;7.00;92.40
46752;DHT22;32497;48.936;9.270;2023-02-04T00:32:39;7.00;92.60
46752;DHT22;32497;48.936;9.270;2023-02-04T00:37:42;7.00;92.50
46752;DHT22;32497;48.936;9.270;2023-02-04T00:42:43;7.00;92.60
46752;DHT22;32497;48.936;9.270;2023-02-04T00:47:44;6.90;92.30
46752;DHT22;32497;48.936;9.270;2023-02-04T00:52:47;6.90;92.20
46752;DHT22;32497;48.936;9.270;2023-02-04T00:57:48;6.90;92.10
46752;DHT22;32497;48.936;9.270;2023-02-04T01:02:49;7.00;91.70
46752;DHT22;32497;48.936;9.270;2023-02-04T01:07:51;6.90;91.70
46752;DHT22;32497;48.936;9.270;2023-02-04T01:12:52;6.90;90.60
46752;DHT22;32497;48.936;9.270;2023-02-04T01:17:53;6.90;89.90
46752;DHT22;32497;48.936;9.270;2023-02-04T01:22:56;6.90;87.70
46752;DHT22;32497;48.936;9.270;2023-02-04T01:27:57;7.00;88.20
46752;DHT22;32497;48.936;9.270;2023-02-04T01:32:58;7.00;88.20
46752;DHT22;32497;48.936;9.270;2023-02-04T01:38:00;7.10;87.20
46752;DHT22;32497;48.936;9.270;2023-02-04T01:43:03;7.10;87.20
46752;DHT22;32497;48.936;9.270;2023-02-04T01:48:05;7.10;87.60
46752;DHT22;32497;48.936;9.270;2023-02-04T01:53:08;7.10;87.80
46752;DHT22;32497;48.936;9.270;2023-02-04T01:58:10;7.10;88.00
46752;DHT22;32497;48.936;9.270;2023-02-04T02:03:12;7.10;88.40
46752;DHT22;32497;48.936;9.270;2023-02-04T02:08:15;7.10;88.40
46752;DHT22;32497;48.936;9.270;2023-02-04T02:13:18;7.10;88.40
46752;DHT22;32497;48.936;9.270;2023-02-04T02:18:19;7.20;87.50
46752;DHT22;32497;48.936;9.270;2023-02-04T02:23:25;7.20;87.10
46752;DHT22;32497;48.936;9.270;2023-02-04T02:28:30;7.20;86.70
46752;DHT22;32497;48.936;9.270;2023-02-04T02:33:31;7.20;87.10
46752;DHT22;32497;48.936;9.270;2023-02-04T02:38:32;7.10;86.80
46752;DHT22;32497;48.936;9.270;2023-02-04T02:43:37;7.20;86.10
46752;DHT22;32497;48.936;9.270;2023-02-04T02:48:39;7.10;86.10
46752;DHT22;32497;48.936;9.270;2023-02-04T02:53:40;7.10;86.70
46752;DHT22;32497;48.936;9.270;2023-02-04T02:58:43;7.10;87.10
46752;DHT22;32497;48.936;9.270;2023-02-04T03:03:48;7.00;87.40
46752;DHT22;32497;48.936;9.270;2023-02-04T03:08:52;7.00;87.50
46752;DHT22;32497;48.936;9.270;2023-02-04T03:13:55;7.00;87.50
46752;DHT22;32497;48.936;9.270;2023-02-04T03:18:58;7.00;87.70
46752;DHT22;32497;48.936;9.270;2023-02-04T03:23:59;7.00;87.70
46752;DHT22;32497;48.936;9.270;2023-02-04T03:29:01;6.90;87.60
46752;DHT22;32497;48.936;9.270;2023-02-04T03:34:06;6.90;87.50
46752;DHT22;32497;48.936;9.270;2023-02-04T03:39:07;6.90;87.50
46752;DHT22;32497;48.936;9.270;2023-02-04T03:44:09;6.90;87.20
46752;DHT22;32497;48.936;9.270;2023-02-04T03:49:10;6.90;87.20
46752;DHT22;32497;48.936;9.270;2023-02-04T03:54:11;6.80;87.40
46752;DHT22;32497;48.936;9.270;2023-02-04T03:59:14;6.80;87.70
46752;DHT22;32497;48.936;9.270;2023-02-04T04:04:15;6.70;88.00
46752;DHT22;32497;48.936;9.270;2023-02-04T04:09:16;6.70;87.60
46752;DHT22;32497;48.936;9.270;2023-02-04T04:14:18;6.70;87.50
46752;DHT22;32497;48.936;9.270;2023-02-04T04:19:19;6.60;87.20
46752;DHT22;32497;48.936;9.270;2023-02-04T04:24:20;6.60;87.40
46752;DHT22;32497;48.936;9.270;2023-02-04T04:29:23;6.50;87.60
46752;DHT22;32497;48.936;9.270;2023-02-04T04:34:24;6.40;87.50
46752;DHT22;32497;48.936;9.270;2023-02-04T04:39:25;6.50;87.40
46752;DHT22;32497;48.936;9.270;2023-02-04T04:44:27;6.50;86.90
46752;DHT22;32497;48.936;9.270;2023-02-04T04:49:28;6.60;86.70
46752;DHT22;32497;48.936;9.270;2023-02-04T04:54:29;6.50;86.60
46752;DHT22;32497;48.936;9.270;2023-02-04T04:59:31;6.50;86.90
46752;DHT22;32497;48.936;9.270;2023-02-04T05:04:33;6.40;87.00
46752;DHT22;32497;48.936;9.270;2023-02-04T05:09:34;6.40;87.40
46752;DHT22;32497;48.936;9.270;2023-02-04T05:14:36;6.40;87.20
46752;DHT22;32497;48.936;9.270;2023-02-04T05:19:37;6.40;87.50
46752;DHT22;32497;48.936;9.270;2023-02-04T05:24:38;6.30;87.90
46752;DHT22;32497;48.936;9.270;2023-02-04T05:29:41;6.20;88.20
46752;DHT22;32497;48.936;9.270;2023-02-04T05:34:42;6.20;88.70
46752;DHT22;32497;48.936;9.270;2023-02-04T05:39:43;6.10;88.90
46752;DHT22;32497;48.936;9.270;2023-02-04T05:44:45;6.00;89.30
46752;DHT22;32497;48.936;9.270;2023-02-04T05:49:46;5.90;89.50
46752;DHT22;32497;48.936;9.270;2023-02-04T05:54:47;5.90;89.60
46752;DHT22;32497;48.936;9.270;2023-02-04T05:59:50;5.80;89.70
46752;DHT22;32497;48.936;9.270;2023-02-04T06:04:51;5.90;89.40
46752;DHT22;32497;48.936;9.270;2023-02-04T06:09:52;5.80;89.50
46752;DHT22;32497;48.936;9.270;2023-02-04T06:14:56;5.70;89.80
46752;DHT22;32497;48.936;9.270;2023-02-04T06:19:57;5.70;89.90
46752;DHT22;32497;48.936;9.270;2023-02-04T06:24:58;5.50;90.30
46752;DHT22;32497;48.936;9.270;2023-02-04T06:30:00;5.40;90.50
46752;DHT22;32497;48.936;9.270;2023-02-04T06:35:04;5.30;90.60
46752;DHT22;32497;48.936;9.270;2023-02-04T06:40:06;5.20;91.00
46752;DHT22;32497;48.936;9.270;2023-02-04T06:45:09;5.20;91.10
46752;DHT22;32497;48.936;9.270;2023-02-04T06:50:10;5.30;90.80
46752;DHT22;32497;48.936;9.270;2023-02-04T06:55:11;5.40;90.20
46752;DHT22;32497;48.936;9.270;2023-02-04T07:00:14;5.40;89.20
46752;DHT22;32497;48.936;9.270;2023-02-04T07:05:15;5.50;89.20
46752;DHT22;32497;48.936;9.270;2023-02-04T07:10:16;5.50;89.20
46752;DHT22;32497;48.936;9.270;2023-02-04T07:15:19;5.50;89.50
46752;DHT22;32497;48.936;9.270;2023-02-04T07:20:20;5.60;89.50
46752;DHT22;32497;48.936;9.270;2023-02-04T07:25:21;5.60;89.60
46752;DHT22;32497;48.936;9.270;2023-02-04T07:30:24;5.70;89.70
46752;DHT22;32497;48.936;9.270;2023-02-04T07:35:25;5.70;89.70
46752;DHT22;32497;48.936;9.270;2023-02-04T07:40:26;5.70;89.10
46752;DHT22;32497;48.936;9.270;2023-02-04T07:45:28;5.80;89.00
46752;DHT22;32497;48.936;9.270;2023-02-04T07:50:29;5.80;88.80
46752;DHT22;32497;48.936;9.270;2023-02-04T07:55:30;5.90;88.70
46752;DHT22;32497;48.936;9.270;2023-02-04T08:00:33;5.90;88.20
46752;DHT22;32497;48.936;9.270;2023-02-04T08:05:34;5.90;88.00
46752;DHT22;32497;48.936;9.270;2023-02-04T08:10:35;5.80;87.70
46752;DHT22;32497;48.936;9.270;2023-02-04T08:15:37;5.80;87.20
46752;DHT22;32497;48.936;9.270;2023-02-04T08:20:38;5.90;87.10
46752;DHT22;32497;48.936;9.270;2023-02-04T08:25:40;5.90;86.70
46752;DHT22;32497;48.936;9.270;2023-02-04T08:30:43;5.90;86.40
46752;DHT22;32497;48.936;9.270;2023-02-04T08:35:44;5.90;86.50
46752;DHT22;32497;48.936;9.270;2023-02-04T08:40:45;5.80;86.60
46752;DHT22;32497;48.936;9.270;2023-02-04T08:45:47;5.70;87.10
46752;DHT22;32497;48.936;9.270;2023-02-04T08:50:48;5.90;87.10
46752;DHT22;32497;48.936;9.270;2023-02-04T08:55:49;6.10;87.10
46752;DHT22;32497;48.936;9.270;2023-02-04T09:00:52;6.40;86.10
46752;DHT22;32497;48.936;9.270;2023-02-04T09:05:53;6.60;85.70
46752;DHT22;32497;48.936;9.270;2023-02-04T09:10:54;6.90;85.40
46752;DHT22;32497;48.936;9.270;2023-02-04T09:15:56;7.30;84.30
46752;DHT22;32497;48.936;9.270;2023-02-04T09:20:57;7.40;82.30
46752;DHT22;32497;48.936;9.270;2023-02-04T09:25:58;7.40;83.00
46752;DHT22;32497;48.936;9.270;2023-02-04T09:31:01;7.50;82.40
46752;DHT22;32497;48.936;9.270;2023-02-04T09:36:02;7.70;80.30
46752;DHT22;32497;48.936;9.270;2023-02-04T09:41:06;7.90;80.10
46752;DHT22;32497;48.936;9.270;2023-02-04T09:46:17;7.90;79.60
46752;DHT22;32497;48.936;9.270;2023-02-04T09:51:21;8.20;79.00
46752;DHT22;32497;48.936;9.270;2023-02-04T09:56:22;8.20;79.00
46752;DHT22;32497;48.936;9.270;2023-02-04T10:01:27;8.30;76.00
46752;DHT22;32497;48.936;9.270;2023-02-04T10:06:28;8.20;75.90
46752;DHT22;32497;48.936;9.270;2023-02-04T10:11:31;8.20;76.10
46752;DHT22;32497;48.936;9.270;2023-02-04T10:16:35;8.20;75.20
46752;DHT22;32497;48.936;9.270;2023-02-04T10:21:36;8.60;75.80
46752;DHT22;32497;48.936;9.270;2023-02-04T10:26:37;9.10;71.10
46752;DHT22;32497;48.936;9.270;2023-02-04T10:31:41;8.90;70.70
46752;DHT22;32497;48.936;9.270;2023-02-04T10:36:44;9.10;71.50
46752;DHT22;32497;48.936;9.270;2023-02-04T10:41:47;8.70;74.00
46752;DHT22;32497;48.936;9.270;2023-02-04T10:46:57;8.70;70.40
46752;DHT22;32497;48.936;9.270;2023-02-04T10:52:00;8.60;70.60
46752;DHT22;32497;48.936;9.270;2023-02-04T10:57:10;8.50;71.60
46752;DHT22;32497;48.936;9.270;2023-02-04T11:02:39;8.40;72.10
46752;DHT22;32497;48.936;9.270;2023-02-04T11:07:41;8.40;71.30
46752;DHT22;32497;48.936;9.270;2023-02-04T11:12:44;8.10;72.10
46752;DHT22;32497;48.936;9.270;2023-02-04T11:18:01;7.90;73.80
46752;DHT22;32497;48.936;9.270;2023-02-04T11:23:27;8.00;72.90
46752;DHT22;32497;48.936;9.270;2023-02-04T11:28:38;8.70;69.50
46752;DHT22;32497;48.936;9.270;2023-02-04T11:33:41;9.60;67.30
46752;DHT22;32497;48.936;9.270;2023-02-04T11:38:44;10.20;63.00
46752;DHT22;32497;48.936;9.270;2023-02-04T11:43:45;10.90;63.00
46752;DHT22;32497;48.936;9.270;2023-02-04T11:48:53;11.20;61.30
46752;DHT22;32497;48.936;9.270;2023-02-04T11:53:54;9.90;64.70
46752;DHT22;32497;48.936;9.270;2023-02-04T11:58:56;9.20;65.40
46752;DHT22;32497;48.936;9.270;2023-02-04T12:04:01;8.90;67.70
46752;DHT22;32497;48.936;9.270;2023-02-04T12:09:06;8.70;66.40
46752;DHT22;32497;48.936;9.270;2023-02-04T12:14:09;8.10;67.80
46752;DHT22;32497;48.936;9.270;2023-02-04T12:19:12;8.10;69.50
46752;DHT22;32497;48.936;9.270;2023-02-04T12:24:13;8.10;66.80
46752;DHT22;32497;48.936;9.270;2023-02-04T12:29:14;8.20;67.40
46752;DHT22;32497;48.936;9.270;2023-02-04T12:34:16;8.30;67.10
46752;DHT22;32497;48.936;9.270;2023-02-04T12:39:17;8.60;68.60
46752;DHT22;32497;48.936;9.270;2023-02-04T12:44:18;8.90;66.10
46752;DHT22;32497;48.936;9.270;2023-02-04T12:49:20;9.10;65.60
46752;DHT22;32497;48.936;9.270;2023-02-04T12:54:21;9.20;64.60
46752;DHT22;32497;48.936;9.270;2023-02-04T12:59:22;9.40;64.40
46752;DHT22;32497;48.936;9.270;2023-02-04T13:04:24;8.90;64.50
46752;DHT22;32497;48.936;9.270;2023-02-04T13:09:25;9.10;65.80
46752;DHT22;32497;48.936;9.270;2023-02-04T13:14:25;9.80;64.70
46752;DHT22;32497;48.936;9.270;2023-02-04T13:19:28;9.90;61.90
46752;DHT22;32497;48.936;9.270;2023-02-04T13:24:28;9.50;62.60
46752;DHT22;32497;48.936;9.270;2023-02-04T13:29:29;9.80;62.80
46752;DHT22;32497;48.936;9.270;2023-02-04T13:34:31;10.00;62.00
46752;DHT22;32497;48.936;9.270;2023-02-04T13:39:32;10.40;61.30
46752;DHT22;32497;48.936;9.270;2023-02-04T13:44:33;10.40;60.70
46752;DHT22;32497;48.936;9.270;2023-02-04T13:49:35;10.10;61.50
46752;DHT22;32497;48.936;9.270;2023-02-04T13:54:36;9.50;62.50
46752;DHT22;32497;48.936;9.270;2023-02-04T13:59:37;9.40;64.70
46752;DHT22;32497;48.936;9.270;2023-02-04T14:04:39;9.80;60.80
46752;DHT22;32497;48.936;9.270;2023-02-04T14:09:39;9.40;60.60
46752;DHT22;32497;48.936;9.270;2023-02-04T14:14:40;9.20;62.50
46752;DHT22;32497;48.936;9.270;2023-02-04T14:19:42;9.30;63.30
46752;DHT22;32497;48.936;9.270;2023-02-04T14:24:43;9.70;58.80
46752;DHT22;32497;48.936;9.270;2023-02-04T14:29:44;11.20;57.80
46752;DHT22;32497;48.936;9.270;2023-02-04T14:34:46;10.70;57.00
46752;DHT22;32497;48.936;9.270;2023-02-04T14:39:47;9.70;60.60
46752;DHT22;32497;48.936;9.270;2023-02-04T14:44:47;9.30;60.70
46752;DHT22;32497;48.936;9.270;2023-02-04T14:49:50;9.10;62.20
46752;DHT22;32497;48.936;9.270;2023-02-04T14:54:50;9.30;61.20
46752;DHT22;32497;48.936;9.270;2023-02-04T14:59:51;8.60;62.80
46752;DHT22;32497;48.936;9.270;2023-02-04T15:04:53;8.10;65.60
46752;DHT22;32497;48.936;9.270;2023-02-04T15:09:54;7.90;68.20
46752;DHT22;32497;48.936;9.270;2023-02-04T15:14:55;7.50;69.80
46752;DHT22;32497;48.936;9.270;2023-02-04T15:19:57;7.60;70.20
46752;DHT22;32497;48.936;9.270;2023-02-04T15:24:58;7.70;70.20
46752;DHT22;32497;48.936;9.270;2023-02-04T15:29:59;7.70;68.50
46752;DHT22;32497;48.936;9.270;2023-02-04T15:35:02;7.70;67.40
46752;DHT22;32497;48.936;9.270;2023-02-04T15:40:03;7.50;68.50
46752;DHT22;32497;48.936;9.270;2023-02-04T15:45:05;7.30;69.20
46752;DHT22;32497;48.936;9.270;2023-02-04T15:50:09;6.90;70.20
46752;DHT22;32497;48.936;9.270;2023-02-04T15:55:10;6.70;71.60
46752;DHT22;32497;48.936;9.270;2023-02-04T16:00:12;6.40;73.30
46752;DHT22;32497;48.936;9.270;2023-02-04T16:05:15;6.20;73.50
46752;DHT22;32497;48.936;9.270;2023-02-04T16:10:16;6.10;73.50
46752;DHT22;32497;48.936;9.270;2023-02-04T16:15:17;6.00;74.00
46752;DHT22;32497;48.936;9.270;2023-02-04T16:20:20;5.80;74.50
46752;DHT22;32497;48.936;9.270;2023-02-04T16:25:21;5.60;75.50
46752;DHT22;32497;48.936;9.270;2023-02-04T16:30:22;5.40;76.70
46752;DHT22;32497;48.936;9.270;2023-02-04T16:35:25;5.20;77.10
46752;DHT22;32497;48.936;9.270;2023-02-04T16:40:26;5.10;77.70
46752;DHT22;32497;48.936;9.270;2023-02-04T16:45:27;5.10;77.90
46752;DHT22;32497;48.936;9.270;2023-02-04T16:50:29;5.10;78.40
46752;DHT22;32497;48.936;9.270;2023-02-04T16:55:30;5.00;79.00
46752;DHT22;32497;48.936;9.270;2023-02-04T17:00:31;5.10;79.00
46752;DHT22;32497;48.936;9.270;2023-02-04T17:05:33;5.00;78.30
46752;DHT22;32497;48.936;9.270;2023-02-04T17:10:34;5.00;78.90
46752;DHT22;32497;48.936;9.270;2023-02-04T17:15:35;5.00;77.90
46752;DHT22;32497;48.936;9.270;2023-02-04T17:20:37;4.70;78.50
46752;DHT22;32497;48.936;9.270;2023-02-04T17:25:38;4.30;80.00
46752;DHT22;32497;48.936;9.270;2023-02-04T17:30:39;4.10;80.50
46752;DHT22;32497;48.936;9.270;2023-02-04T17:35:41;3.90;80.60
46752;DHT22;32497;48.936;9.270;2023-02-04T17:40:41;3.90;80.70
46752;DHT22;32497;48.936;9.270;2023-02-04T17:45:42;3.70;80.70
46752;DHT22;32497;48.936;9.270;2023-02-04T17:50:44;3.60;81.00
46752;DHT22;32497;48.936;9.270;2023-02-04T17:55:45;3.50;81.60
46752;DHT22;32497;48.936;9.270;2023-02-04T18:00:47;3.40;81.90
46752;DHT22;32497;48.936;9.270;2023-02-04T18:05:50;3.60;81.50
46752;DHT22;32497;48.936;9.270;2023-02-04T18:10:52;3.60;81.10
46752;DHT22;32497;48.936;9.270;2023-02-04T18:15:55;3.60;81.50
46752;DHT22;32497;48.936;9.270;2023-02-04T18:20:58;3.40;82.50
46752;DHT22;32497;48.936;9.270;2023-02-04T18:26:06;3.40;82.80
46752;DHT22;32497;48.936;9.270;2023-02-04T18:31:23;3.30;82.60
46752;DHT22;32497;48.936;9.270;2023-02-04T18:36:31;3.00;83.70
46752;DHT22;32497;48.936;9.270;2023-02-04T18:41:32;2.70;84.00
46752;DHT22;32497;48.936;9.270;2023-02-04T18:46:36;2.40;84.10
46752;DHT22;32497;48.936;9.270;2023-02-04T18:51:43;2.20;84.90
46752;DHT22;32497;48.936;9.270;2023-02-04T18:56:44;2.10;85.50
46752;DHT22;32497;48.936;9.270;2023-02-04T19:01:46;1.90;86.30
46752;DHT22;32497;48.936;9.270;2023-02-04T19:06:49;1.90;86.50
46752;DHT22;32497;48.936;9.270;2023-02-04T19:11:51;1.90;87.00
46752;DHT22;32497;48.936;9.270;2023-02-04T19:16:57;1.80;86.50
46752;DHT22;32497;48.936;9.270;2023-02-04T19:22:15;1.70;87.30
46752;DHT22;32497;48.936;9.270;2023-02-04T19:27:28;1.60;87.20
46752;DHT22;32497;48.936;9.270;2023-02-04T19:32:39;1.60;87.90
46752;DHT22;32497;48.936;9.270;2023-02-04T19:37:48;1.50;87.80
46752;DHT22;32497;48.936;9.270;2023-02-04T19:42:53;1.50;88.00
46752;DHT22;32497;48.936;9.270;2023-02-04T19:47:55;1.40;87.80
46752;DHT22;32497;48.936;9.270;2023-02-04T19:53:01;1.30;87.70
46752;DHT22;32497;48.936;9.270;2023-02-04T19:58:13;1.20;88.90
46752;DHT22;32497;48.936;9.270;2023-02-04T20:03:23;1.20;89.20
46752;DHT22;32497;48.936;9.270;2023-02-04T20:08:43;1.20;89.10
46752;DHT22;32497;48.936;9.270;2023-02-04T20:13:45;1.20;89.40
46752;DHT22;32497;48.936;9.270;2023-02-04T20:18:46;1.60;90.00
46752;DHT22;32497;48.936;9.270;2023-02-04T20:23:48;1.60;88.60
46752;DHT22;32497;48.936;9.270;2023-02-04T20:28:51;1.50;88.70
46752;DHT22;32497;48.936;9.270;2023-02-04T20:33:54;1.40;88.60
46752;DHT22;32497;48.936;9.270;2023-02-04T20:39:06;1.40;89.30
46752;DHT22;32497;48.936;9.270;2023-02-04T20:44:16;1.30;89.00
46752;DHT22;32497;48.936;9.270;2023-02-04T20:49:21;1.30;89.20
46752;DHT22;32497;48.936;9.270;2023-02-04T20:54:27;1.40;89.00
46752;DHT22;32497;48.936;9.270;2023-02-04T20:59:31;1.40;88.90
46752;DHT22;32497;48.936;9.270;2023-02-04T21:04:35;1.20;88.80
46752;DHT22;32497;48.936;9.270;2023-02-04T21:09:39;1.10;89.20
46752;DHT22;32497;48.936;9.270;2023-02-04T21:14:40;1.00;89.40
46752;DHT22;32497;48.936;9.270;2023-02-04T21:19:41;0.90;89.60
46752;DHT22;32497;48.936;9.270;2023-02-04T21:24:44;0.90;89.70
46752;DHT22;32497;48.936;9.270;2023-02-04T21:29:45;0.80;90.00
46752;DHT22;32497;48.936;9.270;2023-02-04T21:34:46;0.80;89.80
46752;DHT22;32497;48.936;9.270;2023-02-04T21:39:48;0.60;89.90
46752;DHT22;32497;48.936;9.270;2023-02-04T21:44:49;0.60;90.10
46752;DHT22;32497;48.936;9.270;2023-02-04T21:49:50;0.50;90.00
46752;DHT22;32497;48.936;9.270;2023-02-04T21:54:53;0.50;90.30
46752;DHT22;32497;48.936;9.270;2023-02-04T21:59:54;0.70;90.40
46752;DHT22;32497;48.936;9.270;2023-02-04T22:04:55;0.80;90.00
46752;DHT22;32497;48.936;9.270;2023-02-04T22:09:57;0.80;90.00
46752;DHT22;32497;48.936;9.270;2023-02-04T22:14:59;1.00;90.10
46752;DHT22;32497;48.936;9.270;2023-02-04T22:20:00;1.20;90.20
46752;DHT22;32497;48.936;9.270;2023-02-04T22:25:02;1.30;89.90
46752;DHT22;32497;48.936;9.270;2023-02-04T22:30:05;1.30;89.10
46752;DHT22;32497;48.936;9.270;2023-02-04T22:35:07;1.30;89.00
46752;DHT22;32497;48.936;9.270;2023-02-04T22:40:11;1.30;89.00
46752;DHT22;32497;48.936;9.270;2023-02-04T22:45:12;1.40;89.10
46752;DHT22;32497;48.936;9.270;2023-02-04T22:50:13;1.40;89.00
46752;DHT22;32497;48.936;9.270;2023-02-04T22:55:15;1.40;88.80
46752;DHT22;32497;48.936;9.270;2023-02-04T23:00:17;1.40;88.80
46752;DHT22;32497;48.936;9.270;2023-02-04T23:05:18;1.50;89.50
46752;DHT22;32497;48.936;9.270;2023-02-04T23:10:20;1.60;89.10
46752;DHT22;32497;48.936;9.270;2023-02-04T23:15:21;1.60;88.70
46752;DHT22;32497;48.936;9.270;2023-02-04T23:20:22;1.60;88.30
46752;DHT22;32497;48.936;9.270;2023-02-04T23:25:25;1.60;88.30
46752;DHT22;32497;48.936;9.270;2023-02-04T23:30:26;1.80;88.30
46752;DHT22;32497;48.936;9.270;2023-02-04T23:35:27;1.80;88.40
46752;DHT22;32497;48.936;9.270;2023-02-04T23:40:30;1.70;88.30
46752;DHT22;32497;48.936;9.270;2023-02-04T23:45:31;1.80;88.70
46752;DHT22;32497;48.936;9.270;2023-02-04T23:50:32;1.70;88.10
46752;DHT22;32497;48.936;9.270;2023-02-04T23:55:34;1.60;88.00
